Time;durP1;ratioP1;P1;durP2;ratioP2;P2;SDS_P1;SDS_P2;PMS_P1;PMS_P2;Temp;Humidity;BMP_temperature;BMP_pressure;BME280_temperature;BME280_humidity;BME280_pressure;Samples;Min_cycle;Max_cycle;Signal;HPM_P1;HPM_P2
2022/06/09 00:01:10;;;;;;;;;;;;;;;;;;4996770;28;19916;-75
2022/06/09 00:03:35;;;;;;;;;;;;;;;;;;5014347;28;20323;-75
2022/06/09 00:06:01;;;;;;;;;;;;;;;;;;5000020;28;20387;-75
2022/06/09 00:08:26;;;;;;;;;;;;;;;;;;5038121;28;20023;-75
2022/06/09 00:10:52;;;;;;;;;;;;;;;;;;5054165;28;19944;-76
2022/06/09 00:13:17;;;;;;;;;;;;;;;;;;5023615;28;19944;-75
2022/06/09 00:15:42;;;;;;;;;;;;;;;;;;5031385;28;19909;-75
2022/06/09 00:18:07;;;;;;;;;;;;;;;;;;5021921;28;19920;-75
2022/06/09 00:20:33;;;;;;;;;;;;;;;;;;5026736;28;19984;-75
2022/06/09 00:22:58;;;;;;;;;;;;;;;;;;5028730;28;19997;-76
2022/06/09 00:25:24;;;;;;;;;;;;;;;;;;5019056;28;20013;-75
2022/06/09 00:27:49;;;;;;;;;;;;;;;;;;4980572;28;19999;-75
2022/06/09 00:30:14;;;;;;;;;;;;;;;;;;4996584;28;19956;-75
2022/06/09 00:32:40;;;;;;;;;;;;;;;;;;5013808;28;19909;-74
2022/06/09 00:35:05;;;;;;;;;;;;;;;;;;5013857;28;19944;-75
2022/06/09 00:37:30;;;;;;;;;;;;;;;;;;5013765;28;19948;-74
2022/06/09 00:39:57;;;;;;;;;;;;;;;;;;5002767;28;19920;-75
2022/06/09 00:42:23;;;;;;;;;;;;;;;;;;5027908;28;19909;-74
2022/06/09 00:44:48;;;;;;;;;;;;;;;;;;5035769;28;19913;-74
2022/06/09 00:47:13;;;;;;;;;;;;;;;;;;5019213;28;19908;-74
2022/06/09 00:49:39;;;;;;;;;;;;;;;;;;5035969;28;19912;-74
2022/06/09 00:52:04;;;;;;;;;;;;;;;;;;5053350;28;19967;-75
2022/06/09 00:54:29;;;;;;;;;;;;;;;;;;5035254;28;19916;-75
2022/06/09 00:56:55;;;;;;;;;;;;;;;;;;5025278;28;19915;-75
2022/06/09 00:59:20;;;;;;;;;;;;;;;;;;5010132;28;20438;-75
2022/06/09 01:01:46;;;;;;;;;;;;;;;;;;5052984;28;20279;-74
2022/06/09 01:04:11;;;;;;;;;;;;;;;;;;5020287;28;20262;-75
2022/06/09 01:06:36;;;;;;;;;;;;;;;;;;5047891;28;19912;-75
2022/06/09 01:09:02;;;;;;;;;;;;;;;;;;5041357;28;19962;-74
2022/06/09 01:11:27;;;;;;;;;;;;;;;;;;5019588;28;20287;-75
2022/06/09 01:13:53;;;;;;;;;;;;;;;;;;5013103;28;19964;-76
2022/06/09 01:16:18;;;;;;;;;;;;;;;;;;4995666;28;19977;-76
2022/06/09 01:18:43;;;;;;;;;;;;;;;;;;4995557;28;20361;-75
2022/06/09 01:21:09;;;;;;;;;;;;;;;;;;4995917;28;19909;-75
2022/06/09 01:23:34;;;;;;;;;;;;;;;;;;4995324;28;19969;-75
2022/06/09 01:26:00;;;;;;;;;;;;;;;;;;5013148;28;19909;-75
2022/06/09 01:28:25;;;;;;;;;;;;;;;;;;4991101;28;20316;-75
2022/06/09 01:30:51;;;;;;;;;;;;;;;;;;5030770;28;19916;-75
2022/06/09 01:33:16;;;;;;;;;;;;;;;;;;5052499;28;19916;-74
2022/06/09 01:35:41;;;;;;;;;;;;;;;;;;5052378;28;19952;-75
2022/06/09 01:38:07;;;;;;;;;;;;;;;;;;5034833;28;19998;-76
2022/06/09 01:40:32;;;;;;;;;;;;;;;;;;5052471;28;19911;-76
2022/06/09 01:42:57;;;;;;;;;;;;;;;;;;5034536;28;19963;-74
2022/06/09 01:45:22;;;;;;;;;;;;;;;;;;5006553;28;19916;-75
2022/06/09 01:47:48;;;;;;;;;;;;;;;;;;5052391;28;19913;-75
2022/06/09 01:50:13;;;;;;;;;;;;;;;;;;5034513;28;19909;-75
2022/06/09 01:52:40;;;;;;;;;;;;;;;;;;5017980;28;19916;-75
2022/06/09 01:55:05;;;;;;;;;;;;;;;;;;5018273;28;20372;-76
2022/06/09 01:57:31;;;;;;;;;;;;;;;;;;5052456;28;19962;-75
2022/06/09 01:59:56;;;;;;;;;;;;;;;;;;5048453;28;19913;-74
2022/06/09 02:02:21;;;;;;;;;;;;;;;;;;5035847;28;19931;-75
2022/06/09 02:04:47;;;;;;;;;;;;;;;;;;5017683;28;19947;-74
2022/06/09 02:07:12;;;;;;;;;;;;;;;;;;5010450;28;19971;-75
2022/06/09 02:09:37;;;;;;;;;;;;;;;;;;5025963;28;19908;-74
2022/06/09 02:12:03;;;;;;;;;;;;;;;;;;5000663;28;20395;-73
2022/06/09 02:14:28;;;;;;;;;;;;;;;;;;5027946;28;20334;-75
2022/06/09 02:16:54;;;;;;;;;;;;;;;;;;4997086;28;19917;-74
2022/06/09 02:19:19;;;;;;;;;;;;;;;;;;5012271;28;19921;-75
2022/06/09 02:21:44;;;;;;;;;;;;;;;;;;4994846;28;19921;-74
2022/06/09 02:24:10;;;;;;;;;;;;;;;;;;4978750;28;20265;-75
2022/06/09 02:26:35;;;;;;;;;;;;;;;;;;4994750;28;19913;-76
2022/06/09 02:29:00;;;;;;;;;;;;;;;;;;4994690;28;19909;-75
2022/06/09 02:31:26;;;;;;;;;;;;;;;;;;5010332;28;19931;-75
2022/06/09 02:33:51;;;;;;;;;;;;;;;;;;5033837;28;19958;-74
2022/06/09 02:36:17;;;;;;;;;;;;;;;;;;5017523;28;19912;-74
2022/06/09 02:38:42;;;;;;;;;;;;;;;;;;5051823;28;19919;-74
2022/06/09 02:41:07;;;;;;;;;;;;;;;;;;5034233;28;20007;-74
2022/06/09 02:43:33;;;;;;;;;;;;;;;;;;5034004;28;20003;-75
2022/06/09 02:45:59;;;;;;;;;;;;;;;;;;5011584;28;19909;-75
2022/06/09 02:48:24;;;;;;;;;;;;;;;;;;5023359;28;19951;-75
2022/06/09 02:50:51;;;;;;;;;;;;;;;;;;5051695;28;19951;-74
2022/06/09 02:53:16;;;;;;;;;;;;;;;;;;5004974;28;19909;-76
2022/06/09 02:55:41;;;;;;;;;;;;;;;;;;5046245;28;19909;-75
2022/06/09 02:58:07;;;;;;;;;;;;;;;;;;5019080;28;19912;-76
2022/06/09 03:00:32;;;;;;;;;;;;;;;;;;5042868;28;20039;-76
2022/06/09 03:02:57;;;;;;;;;;;;;;;;;;5025542;28;19916;-76
2022/06/09 03:05:23;;;;;;;;;;;;;;;;;;5022067;28;19909;-76
2022/06/09 03:07:48;;;;;;;;;;;;;;;;;;5029240;28;20363;-75
2022/06/09 03:10:13;;;;;;;;;;;;;;;;;;5037706;28;19908;-76
2022/06/09 03:12:39;;;;;;;;;;;;;;;;;;5023848;28;20450;-76
2022/06/09 03:15:07;;;;;;;;;;;;;;;;;;5026945;28;19912;-76
2022/06/09 03:17:33;;;;;;;;;;;;;;;;;;5017192;28;19909;-75
2022/06/09 03:19:58;;;;;;;;;;;;;;;;;;5029413;28;19920;-76
2022/06/09 03:22:24;;;;;;;;;;;;;;;;;;5021819;28;20237;-75
2022/06/09 03:24:49;;;;;;;;;;;;;;;;;;5016278;28;19916;-76
2022/06/09 03:27:15;;;;;;;;;;;;;;;;;;5038147;28;19912;-73
2022/06/09 03:29:40;;;;;;;;;;;;;;;;;;5004674;28;19909;-74
2022/06/09 03:32:05;;;;;;;;;;;;;;;;;;5030092;28;19958;-75
2022/06/09 03:34:31;;;;;;;;;;;;;;;;;;5027232;28;19912;-75
2022/06/09 03:36:56;;;;;;;;;;;;;;;;;;5022656;28;20212;-75
2022/06/09 03:39:21;;;;;;;;;;;;;;;;;;5033177;28;19913;-75
2022/06/09 03:41:47;;;;;;;;;;;;;;;;;;5035586;28;19936;-75
2022/06/09 03:44:12;;;;;;;;;;;;;;;;;;5036595;28;20363;-75
2022/06/09 03:46:37;;;;;;;;;;;;;;;;;;5008720;28;19909;-75
2022/06/09 03:49:03;;;;;;;;;;;;;;;;;;5015121;28;19915;-75
2022/06/09 03:51:28;;;;;;;;;;;;;;;;;;5018318;28;20365;-75
2022/06/09 03:53:53;;;;;;;;;;;;;;;;;;5036157;28;19909;-75
2022/06/09 03:56:19;;;;;;;;;;;;;;;;;;5033689;28;20011;-75
2022/06/09 03:58:44;;;;;;;;;;;;;;;;;;5033650;28;19966;-74
2022/06/09 04:01:13;;;;;;;;;;;;;;;;;;5012191;28;20372;-73
2022/06/09 04:03:38;;;;;;;;;;;;;;;;;;5050542;28;19905;-74
2022/06/09 04:06:03;;;;;;;;;;;;;;;;;;5022953;28;20379;-75
2022/06/09 04:08:29;;;;;;;;;;;;;;;;;;5043791;28;19956;-75
2022/06/09 04:10:55;;;;;;;;;;;;;;;;;;5013725;28;19958;-75
2022/06/09 04:13:21;;;;;;;;;;;;;;;;;;5019345;28;19995;-75
2022/06/09 04:15:47;;;;;;;;;;;;;;;;;;5049435;28;19945;-75
2022/06/09 04:18:12;;;;;;;;;;;;;;;;;;5023804;28;19917;-74
2022/06/09 04:20:38;;;;;;;;;;;;;;;;;;5042296;28;20574;-75
2022/06/09 04:23:03;;;;;;;;;;;;;;;;;;5030625;28;20379;-74
2022/06/09 04:25:29;;;;;;;;;;;;;;;;;;5001572;28;20373;-76
2022/06/09 04:27:54;;;;;;;;;;;;;;;;;;5030200;28;19966;-76
2022/06/09 04:30:19;;;;;;;;;;;;;;;;;;5024772;28;19957;-75
2022/06/09 04:32:45;;;;;;;;;;;;;;;;;;5040417;28;20318;-76
2022/06/09 04:35:12;;;;;;;;;;;;;;;;;;5047994;28;19916;-75
2022/06/09 04:40:22;;;;;;;;;;;;;;;;;;5043003;28;19935;-75
2022/06/09 04:42:50;;;;;;;;;;;;;;;;;;5019274;28;20283;-75
2022/06/09 04:45:16;;;;;;;;;;;;;;;;;;5035111;28;19908;-76
2022/06/09 04:47:41;;;;;;;;;;;;;;;;;;5036616;28;19908;-75
2022/06/09 04:50:07;;;;;;;;;;;;;;;;;;5045978;28;19909;-75
2022/06/09 04:52:33;;;;;;;;;;;;;;;;;;5043608;28;19913;-75
2022/06/09 04:54:58;;;;;;;;;;;;;;;;;;5020631;28;20394;-76
2022/06/09 04:57:24;;;;;;;;;;;;;;;;;;5031285;28;19908;-75
2022/06/09 04:59:49;;;;;;;;;;;;;;;;;;5037286;28;19908;-75
2022/06/09 05:02:15;;;;;;;;;;;;;;;;;;5044425;28;19920;-76
2022/06/09 05:04:40;;;;;;;;;;;;;;;;;;5026692;28;20279;-75
2022/06/09 05:07:05;;;;;;;;;;;;;;;;;;5031319;28;20000;-75
2022/06/09 05:09:31;;;;;;;;;;;;;;;;;;5047674;28;20352;-76
2022/06/09 05:11:56;;;;;;;;;;;;;;;;;;4993813;28;20313;-75
2022/06/09 05:14:22;;;;;;;;;;;;;;;;;;5022810;28;19912;-76
2022/06/09 05:16:47;;;;;;;;;;;;;;;;;;4978291;28;20383;-76
2022/06/09 05:19:12;;;;;;;;;;;;;;;;;;5030939;28;19912;-76
2022/06/09 05:21:38;;;;;;;;;;;;;;;;;;5017768;28;20287;-75
2022/06/09 05:24:03;;;;;;;;;;;;;;;;;;5010829;28;20376;-76
2022/06/09 05:26:28;;;;;;;;;;;;;;;;;;5032654;28;19997;-76
2022/06/09 05:28:55;;;;;;;;;;;;;;;;;;5038159;28;19913;-75
2022/06/09 05:31:20;;;;;;;;;;;;;;;;;;5030271;28;19934;-76
2022/06/09 05:33:46;;;;;;;;;;;;;;;;;;5036153;28;19912;-75
2022/06/09 05:36:11;;;;;;;;;;;;;;;;;;5006416;28;20336;-76
2022/06/09 05:46:50;;;;;;;;;;;;;;;;;;5014198;28;20375;-79
2022/06/09 05:49:15;;;;;;;;;;;;;;;;;;5014479;28;19905;-78
2022/06/09 05:51:41;;;;;;;;;;;;;;;;;;5032269;28;19922;-78
2022/06/09 05:54:06;;;;;;;;;;;;;;;;;;5014323;28;19909;-78
2022/06/09 05:56:31;;;;;;;;;;;;;;;;;;5032139;28;19909;-77
2022/06/09 05:58:57;;;;;;;;;;;;;;;;;;4997876;28;19925;-77
2022/06/09 06:01:22;;;;;;;;;;;;;;;;;;5014316;28;19951;-78
2022/06/09 06:03:48;;;;;;;;;;;;;;;;;;5025269;28;20372;-78
2022/06/09 06:08:58;;;;;;;;;;;;;;;;;;5031198;28;20183;-77
2022/06/09 06:11:24;;;;;;;;;;;;;;;;;;5038321;28;20426;-77
2022/06/09 06:13:50;;;;;;;;;;;;;;;;;;5041388;28;20368;-77
2022/06/09 06:16:15;;;;;;;;;;;;;;;;;;5011301;28;19908;-78
2022/06/09 06:18:40;;;;;;;;;;;;;;;;;;5016910;28;19927;-76
2022/06/09 06:21:06;;;;;;;;;;;;;;;;;;5047192;28;19932;-78
2022/06/09 06:23:31;;;;;;;;;;;;;;;;;;5001839;28;20283;-78
2022/06/09 06:25:57;;;;;;;;;;;;;;;;;;5025285;28;19913;-77
2022/06/09 06:28:22;;;;;;;;;;;;;;;;;;5013931;28;19905;-77
2022/06/09 06:30:48;;;;;;;;;;;;;;;;;;5013923;28;19965;-76
2022/06/09 06:33:13;;;;;;;;;;;;;;;;;;5002704;28;19908;-77
2022/06/09 06:35:39;;;;;;;;;;;;;;;;;;5042840;28;19909;-77
2022/06/09 06:38:04;;;;;;;;;;;;;;;;;;5025412;28;20265;-76
2022/06/09 06:40:30;;;;;;;;;;;;;;;;;;5017626;28;19905;-77
2022/06/09 06:42:55;;;;;;;;;;;;;;;;;;5013433;28;20430;-78
2022/06/09 06:45:21;;;;;;;;;;;;;;;;;;5037419;28;19912;-78
2022/06/09 06:47:46;;;;;;;;;;;;;;;;;;5024246;28;19909;-78
2022/06/09 06:50:15;;;;;;;;;;;;;;;;;;5044322;28;19934;-78
2022/06/09 06:52:40;;;;;;;;;;;;;;;;;;5016871;28;20000;-78
2022/06/09 06:55:05;;;;;;;;;;;;;;;;;;5029227;28;19916;-80
2022/06/09 06:57:31;;;;;;;;;;;;;;;;;;5022454;28;19912;-78
2022/06/09 06:59:58;;;;;;;;;;;;;;;;;;5068638;28;20367;-77
2022/06/09 07:02:23;;;;;;;;;;;;;;;;;;5031525;28;19909;-77
2022/06/09 07:04:49;;;;;;;;;;;;;;;;;;4989619;28;20306;-79
2022/06/09 07:07:14;;;;;;;;;;;;;;;;;;5032235;28;20386;-77
2022/06/09 07:09:40;;;;;;;;;;;;;;;;;;5036323;28;19912;-79
2022/06/09 07:12:05;;;;;;;;;;;;;;;;;;5054228;28;19962;-79
2022/06/09 07:14:33;;;;;;;;;;;;;;;;;;5045122;28;20401;-79
2022/06/09 07:16:59;;;;;;;;;;;;;;;;;;5031398;28;19992;-77
2022/06/09 07:19:24;;;;;;;;;;;;;;;;;;5044934;28;20007;-78
2022/06/09 07:21:50;;;;;;;;;;;;;;;;;;5027133;28;19951;-79
2022/06/09 07:24:15;;;;;;;;;;;;;;;;;;5023236;28;20368;-78
2022/06/09 07:26:41;;;;;;;;;;;;;;;;;;5051402;28;19927;-77
2022/06/09 07:29:06;;;;;;;;;;;;;;;;;;5005105;28;19909;-79
2022/06/09 07:31:32;;;;;;;;;;;;;;;;;;5047251;28;19920;-76
2022/06/09 07:33:58;;;;;;;;;;;;;;;;;;5028224;28;19948;-79
2022/06/09 07:36:24;;;;;;;;;;;;;;;;;;5005443;28;20360;-80
2022/06/09 07:38:49;;;;;;;;;;;;;;;;;;5046437;28;19912;-80
2022/06/09 07:41:15;;;;;;;;;;;;;;;;;;5054398;28;20367;-80
2022/06/09 07:43:41;;;;;;;;;;;;;;;;;;5024137;28;19909;-80
2022/06/09 07:46:06;;;;;;;;;;;;;;;;;;5012628;28;19917;-79
2022/06/09 07:48:32;;;;;;;;;;;;;;;;;;5053455;28;20792;-79
2022/06/09 07:50:57;;;;;;;;;;;;;;;;;;5048713;28;19962;-80
2022/06/09 07:53:23;;;;;;;;;;;;;;;;;;5025723;28;19908;-81
2022/06/09 07:55:48;;;;;;;;;;;;;;;;;;5022728;28;19909;-80
2022/06/09 07:58:14;;;;;;;;;;;;;;;;;;5013434;28;19905;-80
2022/06/09 08:00:40;;;;;;;;;;;;;;;;;;5053929;28;20322;-80
2022/06/09 08:03:05;;;;;;;;;;;;;;;;;;5003023;28;20327;-81
2022/06/09 08:05:31;;;;;;;;;;;;;;;;;;5053968;28;19924;-83
2022/06/09 08:07:56;;;;;;;;;;;;;;;;;;5005289;28;20048;-83
2022/06/09 08:10:21;;;;;;;;;;;;;;;;;;5033472;28;20383;-83
2022/06/09 08:12:47;;;;;;;;;;;;;;;;;;5004630;28;19908;-82
2022/06/09 08:15:15;;;;;;;;;;;;;;;;;;5027715;28;19944;-82
2022/06/09 08:17:43;;;;;;;;;;;;;;;;;;5031462;28;19932;-84
2022/06/09 08:20:09;;;;;;;;;;;;;;;;;;5027206;28;20010;-82
2022/06/09 08:22:40;;;;;;;;;;;;;;;;;;5038133;28;20427;-84
2022/06/09 08:25:07;;;;;;;;;;;;;;;;;;5018897;28;19909;-84
2022/06/09 08:27:33;;;;;;;;;;;;;;;;;;5053610;28;19956;-83
2022/06/09 08:29:58;;;;;;;;;;;;;;;;;;5041833;28;20315;-83
2022/06/09 08:32:27;;;;;;;;;;;;;;;;;;5048280;28;19932;-86
2022/06/09 08:34:58;;;;;;;;;;;;;;;;;;5000571;28;19968;-84
2022/06/09 08:37:24;;;;;;;;;;;;;;;;;;5048655;28;19943;-85
2022/06/09 08:39:53;;;;;;;;;;;;;;;;;;5052683;28;20367;-79
2022/06/09 08:42:18;;;;;;;;;;;;;;;;;;5036054;28;19909;-82
2022/06/09 08:44:44;;;;;;;;;;;;;;;;;;5053248;28;19909;-84
2022/06/09 08:47:15;;;;;;;;;;;;;;;;;;5053509;28;20406;-82
2022/06/09 08:49:43;;;;;;;;;;;;;;;;;;5052129;28;19909;-84
2022/06/09 08:52:09;;;;;;;;;;;;;;;;;;5038134;28;20283;-85
2022/06/09 08:54:34;;;;;;;;;;;;;;;;;;5066560;28;19915;-83
2022/06/09 08:57:01;;;;;;;;;;;;;;;;;;5055662;28;20351;-83
2022/06/09 08:59:28;;;;;;;;;;;;;;;;;;5074294;28;20395;-84
2022/06/09 09:01:53;;;;;;;;;;;;;;;;;;5008999;28;20288;-81
2022/06/09 09:04:19;;;;;;;;;;;;;;;;;;5065808;28;19909;-81
2022/06/09 09:06:44;;;;;;;;;;;;;;;;;;5064674;28;19912;-80
2022/06/09 09:09:10;;;;;;;;;;;;;;;;;;5052660;28;19909;-82
2022/06/09 09:11:35;;;;;;;;;;;;;;;;;;5040818;28;20013;-82
2022/06/09 09:14:07;;;;;;;;;;;;;;;;;;5072127;28;19999;-83
2022/06/09 09:16:32;;;;;;;;;;;;;;;;;;5021128;28;19916;-83
2022/06/09 09:19:01;;;;;;;;;;;;;;;;;;5071052;28;20014;-82
2022/06/09 09:21:27;;;;;;;;;;;;;;;;;;5053838;28;20011;-81
2022/06/09 09:23:52;;;;;;;;;;;;;;;;;;5054998;28;20382;-82
2022/06/09 09:26:18;;;;;;;;;;;;;;;;;;5038447;28;20290;-82
2022/06/09 09:28:43;;;;;;;;;;;;;;;;;;5055293;28;20367;-82
2022/06/09 09:31:09;;;;;;;;;;;;;;;;;;5072931;28;20333;-82
2022/06/09 09:33:35;;;;;;;;;;;;;;;;;;5054601;28;20450;-82
2022/06/09 09:36:01;;;;;;;;;;;;;;;;;;5072948;28;19982;-81
2022/06/09 09:38:26;;;;;;;;;;;;;;;;;;5072450;28;19908;-81
2022/06/09 09:40:52;;;;;;;;;;;;;;;;;;5038433;28;20355;-82
2022/06/09 09:43:17;;;;;;;;;;;;;;;;;;5054993;28;19934;-82
2022/06/09 09:45:43;;;;;;;;;;;;;;;;;;5072373;28;19908;-82
2022/06/09 09:48:08;;;;;;;;;;;;;;;;;;5054389;28;20256;-82
2022/06/09 09:50:33;;;;;;;;;;;;;;;;;;5072250;28;19954;-82
2022/06/09 09:53:05;;;;;;;;;;;;;;;;;;5055690;28;19908;-83
2022/06/09 09:55:31;;;;;;;;;;;;;;;;;;5037403;28;19908;-82
2022/06/09 09:57:56;;;;;;;;;;;;;;;;;;5037722;28;19905;-82
2022/06/09 10:00:22;;;;;;;;;;;;;;;;;;5071819;28;20393;-82
2022/06/09 10:11:00;;;;;;;;;;;;;;;;;;5050549;28;19909;-81
2022/06/09 10:13:28;;;;;;;;;;;;;;;;;;5085195;28;20360;-82
2022/06/09 10:15:54;;;;;;;;;;;;;;;;;;5049256;28;20339;-82
2022/06/09 10:18:19;;;;;;;;;;;;;;;;;;5060057;28;19916;-79
2022/06/09 10:20:45;;;;;;;;;;;;;;;;;;5048744;28;19908;-81
2022/06/09 10:23:11;;;;;;;;;;;;;;;;;;5075918;28;19908;-80
2022/06/09 10:25:36;;;;;;;;;;;;;;;;;;5055432;28;20363;-82
2022/06/09 10:28:02;;;;;;;;;;;;;;;;;;5072090;28;19920;-81
2022/06/09 10:30:27;;;;;;;;;;;;;;;;;;5072865;28;20370;-81
2022/06/09 10:32:52;;;;;;;;;;;;;;;;;;5058048;28;19908;-82
2022/06/09 10:35:18;;;;;;;;;;;;;;;;;;5075842;28;20318;-82
2022/06/09 10:37:43;;;;;;;;;;;;;;;;;;5057862;28;20003;-81
2022/06/09 10:40:09;;;;;;;;;;;;;;;;;;5057686;28;19970;-83
2022/06/09 10:42:35;;;;;;;;;;;;;;;;;;5041000;28;20359;-79
2022/06/09 10:45:00;;;;;;;;;;;;;;;;;;5041149;28;19924;-82
2022/06/09 10:55:39;;;;;;;;;;;;;;;;;;5057926;28;19908;-83
2022/06/09 10:58:07;;;;;;;;;;;;;;;;;;5041643;28;19912;-81
2022/06/09 11:00:33;;;;;;;;;;;;;;;;;;5075133;28;19916;-82
2022/06/09 11:02:58;;;;;;;;;;;;;;;;;;5057247;28;20291;-82
2022/06/09 11:05:24;;;;;;;;;;;;;;;;;;5057394;28;19908;-82
2022/06/09 11:07:49;;;;;;;;;;;;;;;;;;5075208;28;20383;-82
2022/06/09 11:10:14;;;;;;;;;;;;;;;;;;5057482;28;20020;-82
2022/06/09 11:12:40;;;;;;;;;;;;;;;;;;5074860;28;19908;-82
2022/06/09 11:15:08;;;;;;;;;;;;;;;;;;5057450;28;19908;-82
2022/06/09 11:17:34;;;;;;;;;;;;;;;;;;5057142;28;20320;-82
2022/06/09 11:19:59;;;;;;;;;;;;;;;;;;5039905;28;19912;-82
2022/06/09 11:22:25;;;;;;;;;;;;;;;;;;5075525;28;20003;-81
2022/06/09 11:24:50;;;;;;;;;;;;;;;;;;5040478;28;19908;-81
2022/06/09 11:27:16;;;;;;;;;;;;;;;;;;5056933;28;20015;-82
2022/06/09 11:29:41;;;;;;;;;;;;;;;;;;5074836;28;19912;-82
2022/06/09 11:32:07;;;;;;;;;;;;;;;;;;5056650;28;20371;-82
2022/06/09 11:34:32;;;;;;;;;;;;;;;;;;5023421;28;19909;-82
2022/06/09 11:36:58;;;;;;;;;;;;;;;;;;5056572;28;19909;-82
2022/06/09 11:39:23;;;;;;;;;;;;;;;;;;5057611;28;20382;-81
2022/06/09 11:41:52;;;;;;;;;;;;;;;;;;5056783;28;20294;-83
2022/06/09 11:44:26;;;;;;;;;;;;;;;;;;5055387;28;19931;-82
2022/06/09 11:46:51;;;;;;;;;;;;;;;;;;5056229;28;20379;-82
2022/06/09 11:49:26;;;;;;;;;;;;;;;;;;5039571;28;19908;-82
2022/06/09 11:51:51;;;;;;;;;;;;;;;;;;5040425;28;20428;-82
2022/06/09 11:54:17;;;;;;;;;;;;;;;;;;5056371;28;19939;-81
2022/06/09 11:56:48;;;;;;;;;;;;;;;;;;5056365;28;19953;-82
2022/06/09 11:59:26;;;;;;;;;;;;;;;;;;5056365;28;20017;-82
2022/06/09 12:01:52;;;;;;;;;;;;;;;;;;5039781;28;19991;-82
2022/06/09 12:04:17;;;;;;;;;;;;;;;;;;5073780;28;20444;-82
2022/06/09 12:06:43;;;;;;;;;;;;;;;;;;5073806;28;19909;-82
2022/06/09 12:09:08;;;;;;;;;;;;;;;;;;5073735;28;20314;-82
2022/06/09 12:11:37;;;;;;;;;;;;;;;;;;5039807;28;19928;-81
2022/06/09 12:14:03;;;;;;;;;;;;;;;;;;5073980;28;19909;-81
2022/06/09 12:16:28;;;;;;;;;;;;;;;;;;5039586;28;19988;-81
2022/06/09 12:18:54;;;;;;;;;;;;;;;;;;5055925;28;19958;-82
2022/06/09 12:21:19;;;;;;;;;;;;;;;;;;5055978;28;19995;-82
2022/06/09 12:23:45;;;;;;;;;;;;;;;;;;5039320;28;20375;-82
2022/06/09 12:26:10;;;;;;;;;;;;;;;;;;5055534;28;19912;-82
2022/06/09 12:28:36;;;;;;;;;;;;;;;;;;5056244;28;19913;-81
2022/06/09 12:31:01;;;;;;;;;;;;;;;;;;5039387;28;20376;-82
2022/06/09 12:33:27;;;;;;;;;;;;;;;;;;5072919;28;19908;-81
2022/06/09 12:35:52;;;;;;;;;;;;;;;;;;5055545;28;19916;-82
2022/06/09 12:38:18;;;;;;;;;;;;;;;;;;5073196;28;19970;-82
2022/06/09 12:40:47;;;;;;;;;;;;;;;;;;5039029;28;19913;-82
2022/06/09 12:43:12;;;;;;;;;;;;;;;;;;5038662;28;19982;-81
2022/06/09 12:45:37;;;;;;;;;;;;;;;;;;5022471;28;20252;-82
2022/06/09 12:48:03;;;;;;;;;;;;;;;;;;5073001;28;20359;-82
2022/06/09 12:50:28;;;;;;;;;;;;;;;;;;5073047;28;19958;-82
2022/06/09 12:52:54;;;;;;;;;;;;;;;;;;5054968;28;20347;-82
2022/06/09 12:55:20;;;;;;;;;;;;;;;;;;5072217;28;20398;-82
2022/06/09 12:57:45;;;;;;;;;;;;;;;;;;5073100;28;20007;-81
2022/06/09 13:00:13;;;;;;;;;;;;;;;;;;5055003;28;20213;-82
2022/06/09 13:02:39;;;;;;;;;;;;;;;;;;5038433;28;20003;-82
2022/06/09 13:05:04;;;;;;;;;;;;;;;;;;5054898;28;20086;-82
2022/06/09 13:07:30;;;;;;;;;;;;;;;;;;5073207;28;19955;-83
2022/06/09 13:09:55;;;;;;;;;;;;;;;;;;5038242;28;20337;-83
2022/06/09 13:15:33;;;;;;;;;;;;;;;;;;5055756;28;19908;-82
2022/06/09 13:18:05;;;;;;;;;;;;;;;;;;5089288;27;19966;-83
2022/06/09 13:20:31;;;;;;;;;;;;;;;;;;5054567;28;20371;-83
2022/06/09 13:22:56;;;;;;;;;;;;;;;;;;5087947;28;20148;-82
2022/06/09 13:25:22;;;;;;;;;;;;;;;;;;5088003;28;20011;-82
2022/06/09 13:27:48;;;;;;;;;;;;;;;;;;5054380;28;19917;-82
2022/06/09 13:30:18;;;;;;;;;;;;;;;;;;5087608;28;20003;-82
2022/06/09 13:32:44;;;;;;;;;;;;;;;;;;5054110;28;19912;-82
2022/06/09 13:35:09;;;;;;;;;;;;;;;;;;5087361;28;19957;-83
2022/06/09 13:37:35;;;;;;;;;;;;;;;;;;5071194;28;19924;-82
2022/06/09 13:40:01;;;;;;;;;;;;;;;;;;5088325;28;19913;-82
2022/06/09 13:42:26;;;;;;;;;;;;;;;;;;5070596;28;19913;-82
2022/06/09 13:44:58;;;;;;;;;;;;;;;;;;5071849;28;19956;-82
2022/06/09 13:47:26;;;;;;;;;;;;;;;;;;5072324;28;19973;-82
2022/06/09 13:49:51;;;;;;;;;;;;;;;;;;5087981;28;19920;-83
2022/06/09 13:52:17;;;;;;;;;;;;;;;;;;5071379;28;19916;-83
2022/06/09 13:54:44;;;;;;;;;;;;;;;;;;5071473;28;19945;-83
2022/06/09 13:57:16;;;;;;;;;;;;;;;;;;5071691;28;19916;-82
2022/06/09 13:59:45;;;;;;;;;;;;;;;;;;5054555;28;19913;-83
2022/06/09 14:02:10;;;;;;;;;;;;;;;;;;5054143;28;19950;-83
2022/06/09 14:04:37;;;;;;;;;;;;;;;;;;5054472;28;19923;-82
2022/06/09 14:07:06;;;;;;;;;;;;;;;;;;5089451;28;19919;-82
2022/06/09 14:09:33;;;;;;;;;;;;;;;;;;5070895;28;20003;-81
2022/06/09 14:11:58;;;;;;;;;;;;;;;;;;5070399;28;19912;-83
2022/06/09 14:14:24;;;;;;;;;;;;;;;;;;5088728;28;19985;-81
2022/06/09 14:16:50;;;;;;;;;;;;;;;;;;5098362;28;20371;-83
2022/06/09 14:19:15;;;;;;;;;;;;;;;;;;5107550;28;19967;-82
2022/06/09 14:21:40;;;;;;;;;;;;;;;;;;5110051;28;19923;-82
2022/06/09 14:24:08;;;;;;;;;;;;;;;;;;5109244;28;19919;-80
2022/06/09 14:26:35;;;;;;;;;;;;;;;;;;5110094;28;20370;-82
2022/06/09 14:29:10;;;;;;;;;;;;;;;;;;5066519;28;19961;-80
2022/06/09 14:31:35;;;;;;;;;;;;;;;;;;5095602;28;19912;-81
2022/06/09 14:34:01;;;;;;;;;;;;;;;;;;5094998;28;19909;-79
2022/06/09 14:36:26;;;;;;;;;;;;;;;;;;5078523;28;20343;-82
2022/06/09 14:38:51;;;;;;;;;;;;;;;;;;5079781;28;19919;-81
2022/06/09 14:41:17;;;;;;;;;;;;;;;;;;5095506;28;20003;-82
2022/06/09 14:43:43;;;;;;;;;;;;;;;;;;5094542;28;20288;-82
2022/06/09 14:46:08;;;;;;;;;;;;;;;;;;5094780;28;19918;-83
2022/06/09 14:48:33;;;;;;;;;;;;;;;;;;5094678;28;20337;-82
2022/06/09 14:50:59;;;;;;;;;;;;;;;;;;5093585;28;19912;-81
2022/06/09 14:53:24;;;;;;;;;;;;;;;;;;5094708;28;20355;-82
2022/06/09 14:55:50;;;;;;;;;;;;;;;;;;5096167;28;20391;-79
2022/06/09 14:58:15;;;;;;;;;;;;;;;;;;5096534;28;20370;-82
2022/06/09 15:00:45;;;;;;;;;;;;;;;;;;5063718;28;19912;-82
2022/06/09 15:03:10;;;;;;;;;;;;;;;;;;5100162;28;19938;-82
2022/06/09 15:05:36;;;;;;;;;;;;;;;;;;5099126;28;19973;-84
2022/06/09 15:08:01;;;;;;;;;;;;;;;;;;5081177;28;19958;-83
2022/06/09 15:10:27;;;;;;;;;;;;;;;;;;5081507;28;19916;-84
2022/06/09 15:12:52;;;;;;;;;;;;;;;;;;5079979;28;20236;-81
2022/06/09 15:15:17;;;;;;;;;;;;;;;;;;5095842;28;19915;-80
2022/06/09 15:17:43;;;;;;;;;;;;;;;;;;5093925;28;20456;-80
2022/06/09 15:20:09;;;;;;;;;;;;;;;;;;5095831;28;19919;-81
2022/06/09 15:22:37;;;;;;;;;;;;;;;;;;5095529;28;19916;-81
2022/06/09 15:25:03;;;;;;;;;;;;;;;;;;5095043;28;19912;-81
2022/06/09 15:27:28;;;;;;;;;;;;;;;;;;5076062;28;20425;-81
2022/06/09 15:29:54;;;;;;;;;;;;;;;;;;5093738;28;19917;-79
2022/06/09 15:32:19;;;;;;;;;;;;;;;;;;5092615;28;19952;-81
2022/06/09 15:34:44;;;;;;;;;;;;;;;;;;5075983;28;19912;-81
2022/06/09 15:37:13;;;;;;;;;;;;;;;;;;5075436;28;19939;-79
2022/06/09 15:39:39;;;;;;;;;;;;;;;;;;5058420;28;19913;-80
2022/06/09 15:42:05;;;;;;;;;;;;;;;;;;5076297;28;19912;-81
2022/06/09 15:44:32;;;;;;;;;;;;;;;;;;5094393;28;20011;-81
2022/06/09 15:46:57;;;;;;;;;;;;;;;;;;5093005;28;19916;-80
2022/06/09 15:49:23;;;;;;;;;;;;;;;;;;5092391;28;19919;-81
2022/06/09 15:51:48;;;;;;;;;;;;;;;;;;5094220;28;19916;-82
2022/06/09 15:54:14;;;;;;;;;;;;;;;;;;5092522;28;19988;-80
2022/06/09 15:56:39;;;;;;;;;;;;;;;;;;5093263;28;20386;-81
2022/06/09 15:59:10;;;;;;;;;;;;;;;;;;5075066;28;19919;-81
2022/06/09 16:01:39;;;;;;;;;;;;;;;;;;5075250;28;19912;-81
2022/06/09 16:04:33;;;;;;;;;;;;;;;;;;5096073;28;19961;-81
2022/06/09 16:06:59;;;;;;;;;;;;;;;;;;5058755;28;19912;-80
2022/06/09 16:09:36;;;;;;;;;;;;;;;;;;5091898;28;19919;-81
2022/06/09 16:12:02;;;;;;;;;;;;;;;;;;5072449;28;19923;-80
2022/06/09 16:14:27;;;;;;;;;;;;;;;;;;5090078;28;19916;-80
2022/06/09 16:16:53;;;;;;;;;;;;;;;;;;5089717;28;20332;-79
2022/06/09 16:19:18;;;;;;;;;;;;;;;;;;5083073;28;20328;-80
2022/06/09 16:21:49;;;;;;;;;;;;;;;;;;5096483;28;19919;-82
2022/06/09 16:24:18;;;;;;;;;;;;;;;;;;5074578;28;19920;-82
2022/06/09 16:26:43;;;;;;;;;;;;;;;;;;5079004;28;19957;-80
2022/06/09 16:29:11;;;;;;;;;;;;;;;;;;5082745;28;19919;-80
2022/06/09 16:31:37;;;;;;;;;;;;;;;;;;5086259;28;20399;-81
2022/06/09 16:34:03;;;;;;;;;;;;;;;;;;5080407;27;19912;-79
2022/06/09 16:36:28;;;;;;;;;;;;;;;;;;5097079;28;19943;-81
2022/06/09 16:39:00;;;;;;;;;;;;;;;;;;5094884;28;19907;-81
2022/06/09 16:41:29;;;;;;;;;;;;;;;;;;5096821;28;19912;-80
2022/06/09 16:43:55;;;;;;;;;;;;;;;;;;5079585;28;19915;-80
2022/06/09 16:46:20;;;;;;;;;;;;;;;;;;5085635;28;20306;-82
2022/06/09 16:48:49;;;;;;;;;;;;;;;;;;5092973;28;19919;-81
2022/06/09 16:51:14;;;;;;;;;;;;;;;;;;5100373;28;19912;-80
2022/06/09 16:53:40;;;;;;;;;;;;;;;;;;5077519;28;19912;-80
2022/06/09 16:56:06;;;;;;;;;;;;;;;;;;5090018;28;20294;-80
2022/06/09 16:58:31;;;;;;;;;;;;;;;;;;5099999;28;20314;-83
2022/06/09 17:00:57;;;;;;;;;;;;;;;;;;5077088;28;20552;-82
2022/06/09 17:03:22;;;;;;;;;;;;;;;;;;5070162;28;19912;-82
2022/06/09 17:05:47;;;;;;;;;;;;;;;;;;5092300;28;19955;-80
2022/06/09 17:08:13;;;;;;;;;;;;;;;;;;5057050;28;19918;-80
2022/06/09 17:10:39;;;;;;;;;;;;;;;;;;5091961;28;20355;-81